sensor_id;sensor_type;location;lat;lon;timestamp;temperature;humidity
2226;DHT22;1119;48.288;8.726;2023-07-22T00:00:02;17.10;84.30
2226;DHT22;1119;48.288;8.726;2023-07-22T00:02:31;17.10;84.10
2226;DHT22;1119;48.288;8.726;2023-07-22T00:04:59;17.10;83.40
2226;DHT22;1119;48.288;8.726;2023-07-22T00:07:26;17.10;83.30
2226;DHT22;1119;48.288;8.726;2023-07-22T00:09:55;17.10;83.50
2226;DHT22;1119;48.288;8.726;2023-07-22T00:12:22;17.10;83.60
2226;DHT22;1119;48.288;8.726;2023-07-22T00:14:51;17.00;83.20
2226;DHT22;1119;48.288;8.726;2023-07-22T00:17:19;16.90;83.40
2226;DHT22;1119;48.288;8.726;2023-07-22T00:19:48;16.80;84.10
2226;DHT22;1119;48.288;8.726;2023-07-22T00:22:15;16.70;85.00
2226;DHT22;1119;48.288;8.726;2023-07-22T00:24:42;16.70;85.10
2226;DHT22;1119;48.288;8.726;2023-07-22T00:27:11;16.70;85.90
2226;DHT22;1119;48.288;8.726;2023-07-22T00:29:39;16.80;86.00
2226;DHT22;1119;48.288;8.726;2023-07-22T00:32:08;16.80;85.00
2226;DHT22;1119;48.288;8.726;2023-07-22T00:34:35;16.90;85.50
2226;DHT22;1119;48.288;8.726;2023-07-22T00:37:03;16.90;84.50
2226;DHT22;1119;48.288;8.726;2023-07-22T00:39:31;16.90;84.70
2226;DHT22;1119;48.288;8.726;2023-07-22T00:41:58;16.90;84.20
2226;DHT22;1119;48.288;8.726;2023-07-22T00:44:27;16.90;84.40
2226;DHT22;1119;48.288;8.726;2023-07-22T00:46:56;16.80;84.40
2226;DHT22;1119;48.288;8.726;2023-07-22T00:49:26;16.70;84.30
2226;DHT22;1119;48.288;8.726;2023-07-22T00:51:53;16.60;85.00
2226;DHT22;1119;48.288;8.726;2023-07-22T00:54:22;16.60;85.50
2226;DHT22;1119;48.288;8.726;2023-07-22T00:56:49;16.50;85.70
2226;DHT22;1119;48.288;8.726;2023-07-22T00:59:17;16.50;85.50
2226;DHT22;1119;48.288;8.726;2023-07-22T01:01:46;16.50;86.20
2226;DHT22;1119;48.288;8.726;2023-07-22T01:04:14;16.60;86.40
2226;DHT22;1119;48.288;8.726;2023-07-22T01:06:43;16.60;85.30
2226;DHT22;1119;48.288;8.726;2023-07-22T01:09:11;16.60;85.60
2226;DHT22;1119;48.288;8.726;2023-07-22T01:11:39;16.60;85.20
2226;DHT22;1119;48.288;8.726;2023-07-22T01:14:06;16.60;85.60
2226;DHT22;1119;48.288;8.726;2023-07-22T01:16:34;16.60;86.00
2226;DHT22;1119;48.288;8.726;2023-07-22T01:19:03;16.70;85.40
2226;DHT22;1119;48.288;8.726;2023-07-22T01:21:32;16.80;85.60
2226;DHT22;1119;48.288;8.726;2023-07-22T01:24:02;16.80;85.20
2226;DHT22;1119;48.288;8.726;2023-07-22T01:26:29;16.80;84.00
2226;DHT22;1119;48.288;8.726;2023-07-22T01:29:04;16.80;84.40
2226;DHT22;1119;48.288;8.726;2023-07-22T01:31:33;16.70;84.70
2226;DHT22;1119;48.288;8.726;2023-07-22T01:34:01;16.70;85.20
2226;DHT22;1119;48.288;8.726;2023-07-22T01:36:29;16.60;85.70
2226;DHT22;1119;48.288;8.726;2023-07-22T01:38:57;16.50;86.40
2226;DHT22;1119;48.288;8.726;2023-07-22T01:41:27;16.50;86.60
2226;DHT22;1119;48.288;8.726;2023-07-22T01:43:55;16.50;86.70
2226;DHT22;1119;48.288;8.726;2023-07-22T01:46:22;16.50;86.50
2226;DHT22;1119;48.288;8.726;2023-07-22T01:48:50;16.60;86.70
2226;DHT22;1119;48.288;8.726;2023-07-22T01:51:17;16.60;86.40
2226;DHT22;1119;48.288;8.726;2023-07-22T01:53:44;16.70;86.10
2226;DHT22;1119;48.288;8.726;2023-07-22T01:56:12;16.60;85.70
2226;DHT22;1119;48.288;8.726;2023-07-22T01:58:40;16.60;85.60
2226;DHT22;1119;48.288;8.726;2023-07-22T02:01:08;16.60;86.50
2226;DHT22;1119;48.288;8.726;2023-07-22T02:03:35;16.60;86.10
2226;DHT22;1119;48.288;8.726;2023-07-22T02:06:03;16.60;85.90
2226;DHT22;1119;48.288;8.726;2023-07-22T02:08:31;16.70;85.90
2226;DHT22;1119;48.288;8.726;2023-07-22T02:11:01;16.70;85.50
2226;DHT22;1119;48.288;8.726;2023-07-22T02:13:30;16.60;85.90
2226;DHT22;1119;48.288;8.726;2023-07-22T02:15:59;16.70;85.60
2226;DHT22;1119;48.288;8.726;2023-07-22T02:18:27;16.70;85.10
2226;DHT22;1119;48.288;8.726;2023-07-22T02:20:55;16.60;85.10
2226;DHT22;1119;48.288;8.726;2023-07-22T02:23:23;16.60;85.60
2226;DHT22;1119;48.288;8.726;2023-07-22T02:25:51;16.70;85.80
2226;DHT22;1119;48.288;8.726;2023-07-22T02:28:19;16.60;85.20
2226;DHT22;1119;48.288;8.726;2023-07-22T02:30:48;16.60;85.40
2226;DHT22;1119;48.288;8.726;2023-07-22T02:33:19;16.60;85.80
2226;DHT22;1119;48.288;8.726;2023-07-22T02:35:48;16.60;86.10
2226;DHT22;1119;48.288;8.726;2023-07-22T02:38:15;16.60;86.50
2226;DHT22;1119;48.288;8.726;2023-07-22T02:40:44;16.60;85.90
2226;DHT22;1119;48.288;8.726;2023-07-22T02:43:11;16.40;85.60
2226;DHT22;1119;48.288;8.726;2023-07-22T02:45:39;16.40;86.50
2226;DHT22;1119;48.288;8.726;2023-07-22T02:48:06;16.40;86.90
2226;DHT22;1119;48.288;8.726;2023-07-22T02:50:35;16.40;86.40
2226;DHT22;1119;48.288;8.726;2023-07-22T02:53:03;16.40;87.00
2226;DHT22;1119;48.288;8.726;2023-07-22T02:55:30;16.40;86.80
2226;DHT22;1119;48.288;8.726;2023-07-22T02:57:57;16.40;86.40
2226;DHT22;1119;48.288;8.726;2023-07-22T03:00:27;16.40;86.10
2226;DHT22;1119;48.288;8.726;2023-07-22T03:02:56;16.40;86.90
2226;DHT22;1119;48.288;8.726;2023-07-22T03:05:27;16.40;86.60
2226;DHT22;1119;48.288;8.726;2023-07-22T03:07:57;16.30;87.30
2226;DHT22;1119;48.288;8.726;2023-07-22T03:10:25;16.30;86.50
2226;DHT22;1119;48.288;8.726;2023-07-22T03:12:55;16.20;87.10
2226;DHT22;1119;48.288;8.726;2023-07-22T03:15:23;16.10;87.00
2226;DHT22;1119;48.288;8.726;2023-07-22T03:17:51;16.00;88.00
2226;DHT22;1119;48.288;8.726;2023-07-22T03:20:19;15.90;89.20
2226;DHT22;1119;48.288;8.726;2023-07-22T03:22:47;15.90;88.60
2226;DHT22;1119;48.288;8.726;2023-07-22T03:25:17;15.80;88.90
2226;DHT22;1119;48.288;8.726;2023-07-22T03:27:46;15.70;89.30
2226;DHT22;1119;48.288;8.726;2023-07-22T03:30:17;15.70;90.30
2226;DHT22;1119;48.288;8.726;2023-07-22T03:32:46;15.70;89.70
2226;DHT22;1119;48.288;8.726;2023-07-22T03:35:16;15.60;90.10
2226;DHT22;1119;48.288;8.726;2023-07-22T03:37:43;15.60;90.30
2226;DHT22;1119;48.288;8.726;2023-07-22T03:40:11;15.60;90.50
2226;DHT22;1119;48.288;8.726;2023-07-22T03:42:41;15.50;90.30
2226;DHT22;1119;48.288;8.726;2023-07-22T03:45:09;15.60;90.70
2226;DHT22;1119;48.288;8.726;2023-07-22T03:47:37;15.60;90.40
2226;DHT22;1119;48.288;8.726;2023-07-22T03:50:06;15.60;90.50
2226;DHT22;1119;48.288;8.726;2023-07-22T03:52:34;15.70;90.40
2226;DHT22;1119;48.288;8.726;2023-07-22T03:55:02;15.70;90.20
2226;DHT22;1119;48.288;8.726;2023-07-22T03:57:29;15.70;89.90
2226;DHT22;1119;48.288;8.726;2023-07-22T03:59:58;15.60;89.90
2226;DHT22;1119;48.288;8.726;2023-07-22T04:02:26;15.60;90.20
2226;DHT22;1119;48.288;8.726;2023-07-22T04:04:54;15.50;90.30
2226;DHT22;1119;48.288;8.726;2023-07-22T04:07:22;15.50;90.10
2226;DHT22;1119;48.288;8.726;2023-07-22T04:09:49;15.50;90.40
2226;DHT22;1119;48.288;8.726;2023-07-22T04:12:17;15.60;90.20
2226;DHT22;1119;48.288;8.726;2023-07-22T04:14:44;15.60;90.30
2226;DHT22;1119;48.288;8.726;2023-07-22T04:17:13;15.60;90.00
2226;DHT22;1119;48.288;8.726;2023-07-22T04:19:41;15.50;90.10
2226;DHT22;1119;48.288;8.726;2023-07-22T04:22:09;15.60;90.50
2226;DHT22;1119;48.288;8.726;2023-07-22T04:24:36;15.60;90.20
2226;DHT22;1119;48.288;8.726;2023-07-22T04:27:04;15.60;90.10
2226;DHT22;1119;48.288;8.726;2023-07-22T04:29:32;15.60;90.00
2226;DHT22;1119;48.288;8.726;2023-07-22T04:32:00;15.50;90.20
2226;DHT22;1119;48.288;8.726;2023-07-22T04:34:30;15.50;90.20
2226;DHT22;1119;48.288;8.726;2023-07-22T04:36:57;15.50;90.40
2226;DHT22;1119;48.288;8.726;2023-07-22T04:39:25;15.50;90.40
2226;DHT22;1119;48.288;8.726;2023-07-22T04:41:52;15.50;90.60
2226;DHT22;1119;48.288;8.726;2023-07-22T04:44:20;15.60;90.70
2226;DHT22;1119;48.288;8.726;2023-07-22T04:46:47;15.60;90.60
2226;DHT22;1119;48.288;8.726;2023-07-22T04:49:14;15.70;90.30
2226;DHT22;1119;48.288;8.726;2023-07-22T04:51:46;15.60;90.50
2226;DHT22;1119;48.288;8.726;2023-07-22T04:54:14;15.70;90.30
2226;DHT22;1119;48.288;8.726;2023-07-22T04:56:41;15.80;90.40
2226;DHT22;1119;48.288;8.726;2023-07-22T04:59:09;15.90;90.30
2226;DHT22;1119;48.288;8.726;2023-07-22T05:01:37;16.00;90.10
2226;DHT22;1119;48.288;8.726;2023-07-22T05:04:05;16.10;89.40
2226;DHT22;1119;48.288;8.726;2023-07-22T05:06:32;16.20;89.10
2226;DHT22;1119;48.288;8.726;2023-07-22T05:09:02;16.30;87.90
2226;DHT22;1119;48.288;8.726;2023-07-22T05:11:29;16.40;87.90
2226;DHT22;1119;48.288;8.726;2023-07-22T05:13:56;16.50;87.30
2226;DHT22;1119;48.288;8.726;2023-07-22T05:16:24;16.60;87.10
2226;DHT22;1119;48.288;8.726;2023-07-22T05:18:51;16.60;86.80
2226;DHT22;1119;48.288;8.726;2023-07-22T05:21:18;16.60;86.70
2226;DHT22;1119;48.288;8.726;2023-07-22T05:23:46;16.60;86.60
2226;DHT22;1119;48.288;8.726;2023-07-22T05:26:14;16.70;86.50
2226;DHT22;1119;48.288;8.726;2023-07-22T05:28:42;16.60;86.30
2226;DHT22;1119;48.288;8.726;2023-07-22T05:31:09;16.70;86.70
2226;DHT22;1119;48.288;8.726;2023-07-22T05:33:38;16.80;86.00
2226;DHT22;1119;48.288;8.726;2023-07-22T05:36:05;16.80;85.70
2226;DHT22;1119;48.288;8.726;2023-07-22T05:38:33;16.90;85.90
2226;DHT22;1119;48.288;8.726;2023-07-22T05:41:00;16.90;85.60
2226;DHT22;1119;48.288;8.726;2023-07-22T05:43:29;16.90;85.80
2226;DHT22;1119;48.288;8.726;2023-07-22T05:45:56;16.90;85.60
2226;DHT22;1119;48.288;8.726;2023-07-22T05:48:23;16.90;84.80
2226;DHT22;1119;48.288;8.726;2023-07-22T05:50:51;17.00;84.40
2226;DHT22;1119;48.288;8.726;2023-07-22T05:53:18;17.10;83.90
2226;DHT22;1119;48.288;8.726;2023-07-22T05:55:46;17.10;84.00
2226;DHT22;1119;48.288;8.726;2023-07-22T05:58:16;17.20;83.60
2226;DHT22;1119;48.288;8.726;2023-07-22T06:00:46;17.30;82.50
2226;DHT22;1119;48.288;8.726;2023-07-22T06:03:13;17.40;82.10
2226;DHT22;1119;48.288;8.726;2023-07-22T06:05:41;17.50;81.30
2226;DHT22;1119;48.288;8.726;2023-07-22T06:08:08;17.50;81.10
2226;DHT22;1119;48.288;8.726;2023-07-22T06:10:36;17.60;81.30
2226;DHT22;1119;48.288;8.726;2023-07-22T06:13:04;17.70;80.60
2226;DHT22;1119;48.288;8.726;2023-07-22T06:15:31;17.70;80.40
2226;DHT22;1119;48.288;8.726;2023-07-22T06:18:01;17.90;80.10
2226;DHT22;1119;48.288;8.726;2023-07-22T06:20:28;18.00;79.10
2226;DHT22;1119;48.288;8.726;2023-07-22T06:22:57;18.10;79.20
2226;DHT22;1119;48.288;8.726;2023-07-22T06:25:24;18.10;78.40
2226;DHT22;1119;48.288;8.726;2023-07-22T06:27:51;18.20;77.90
2226;DHT22;1119;48.288;8.726;2023-07-22T06:30:19;18.30;77.50
2226;DHT22;1119;48.288;8.726;2023-07-22T06:32:47;18.40;76.50
2226;DHT22;1119;48.288;8.726;2023-07-22T06:35:16;18.30;76.20
2226;DHT22;1119;48.288;8.726;2023-07-22T06:37:44;18.30;76.30
2226;DHT22;1119;48.288;8.726;2023-07-22T06:40:11;18.50;75.70
2226;DHT22;1119;48.288;8.726;2023-07-22T06:42:39;18.90;74.90
2226;DHT22;1119;48.288;8.726;2023-07-22T06:45:07;19.60;73.30
2226;DHT22;1119;48.288;8.726;2023-07-22T06:47:35;20.50;69.90
2226;DHT22;1119;48.288;8.726;2023-07-22T06:50:03;21.10;68.00
2226;DHT22;1119;48.288;8.726;2023-07-22T06:52:32;21.80;65.10
2226;DHT22;1119;48.288;8.726;2023-07-22T06:55:00;22.40;63.50
2226;DHT22;1119;48.288;8.726;2023-07-22T06:57:33;23.00;61.20
2226;DHT22;1119;48.288;8.726;2023-07-22T07:00:06;23.60;59.30
2226;DHT22;1119;48.288;8.726;2023-07-22T07:02:35;24.00;57.20
2226;DHT22;1119;48.288;8.726;2023-07-22T07:05:06;24.20;57.00
2226;DHT22;1119;48.288;8.726;2023-07-22T07:07:35;24.50;55.90
2226;DHT22;1119;48.288;8.726;2023-07-22T07:10:03;24.80;56.40
2226;DHT22;1119;48.288;8.726;2023-07-22T07:12:31;25.00;55.20
2226;DHT22;1119;48.288;8.726;2023-07-22T07:14:59;25.30;53.70
2226;DHT22;1119;48.288;8.726;2023-07-22T07:17:28;25.40;53.10
2226;DHT22;1119;48.288;8.726;2023-07-22T07:19:56;25.40;53.70
2226;DHT22;1119;48.288;8.726;2023-07-22T07:22:23;25.60;52.80
2226;DHT22;1119;48.288;8.726;2023-07-22T07:24:52;25.80;52.30
2226;DHT22;1119;48.288;8.726;2023-07-22T07:27:19;25.60;51.90
2226;DHT22;1119;48.288;8.726;2023-07-22T07:29:47;25.40;52.00
2226;DHT22;1119;48.288;8.726;2023-07-22T07:32:14;25.20;52.70
2226;DHT22;1119;48.288;8.726;2023-07-22T07:34:42;25.40;52.30
2226;DHT22;1119;48.288;8.726;2023-07-22T07:37:09;25.70;52.00
2226;DHT22;1119;48.288;8.726;2023-07-22T07:39:37;25.80;51.60
2226;DHT22;1119;48.288;8.726;2023-07-22T07:42:06;25.80;51.30
2226;DHT22;1119;48.288;8.726;2023-07-22T07:44:34;25.80;51.20
2226;DHT22;1119;48.288;8.726;2023-07-22T07:47:01;25.90;51.30
2226;DHT22;1119;48.288;8.726;2023-07-22T07:49:28;26.10;50.10
2226;DHT22;1119;48.288;8.726;2023-07-22T07:51:56;26.00;49.90
2226;DHT22;1119;48.288;8.726;2023-07-22T07:54:23;25.90;50.70
2226;DHT22;1119;48.288;8.726;2023-07-22T07:56:51;25.90;50.40
2226;DHT22;1119;48.288;8.726;2023-07-22T07:59:19;25.90;50.50
2226;DHT22;1119;48.288;8.726;2023-07-22T08:01:47;25.90;50.70
2226;DHT22;1119;48.288;8.726;2023-07-22T08:04:14;26.00;50.40
2226;DHT22;1119;48.288;8.726;2023-07-22T08:06:43;26.10;49.60
2226;DHT22;1119;48.288;8.726;2023-07-22T08:09:11;26.10;49.50
2226;DHT22;1119;48.288;8.726;2023-07-22T08:11:44;26.10;49.20
2226;DHT22;1119;48.288;8.726;2023-07-22T08:14:12;26.10;48.60
2226;DHT22;1119;48.288;8.726;2023-07-22T08:16:41;25.90;49.10
2226;DHT22;1119;48.288;8.726;2023-07-22T08:19:09;25.90;49.40
2226;DHT22;1119;48.288;8.726;2023-07-22T08:21:36;25.80;48.20
2226;DHT22;1119;48.288;8.726;2023-07-22T08:24:05;25.50;49.70
2226;DHT22;1119;48.288;8.726;2023-07-22T08:26:33;25.10;49.40
2226;DHT22;1119;48.288;8.726;2023-07-22T08:29:00;24.60;50.80
2226;DHT22;1119;48.288;8.726;2023-07-22T08:31:28;24.20;51.50
2226;DHT22;1119;48.288;8.726;2023-07-22T08:33:57;23.90;52.30
2226;DHT22;1119;48.288;8.726;2023-07-22T08:36:24;23.60;52.90
2226;DHT22;1119;48.288;8.726;2023-07-22T08:38:52;23.40;53.30
2226;DHT22;1119;48.288;8.726;2023-07-22T08:41:19;23.20;53.90
2226;DHT22;1119;48.288;8.726;2023-07-22T08:43:50;23.00;54.10
2226;DHT22;1119;48.288;8.726;2023-07-22T08:46:20;22.80;54.40
2226;DHT22;1119;48.288;8.726;2023-07-22T08:48:49;22.70;54.70
2226;DHT22;1119;48.288;8.726;2023-07-22T08:51:21;22.90;55.40
2226;DHT22;1119;48.288;8.726;2023-07-22T08:53:50;23.30;54.20
2226;DHT22;1119;48.288;8.726;2023-07-22T08:56:18;23.80;53.30
2226;DHT22;1119;48.288;8.726;2023-07-22T08:58:46;24.20;52.50
2226;DHT22;1119;48.288;8.726;2023-07-22T09:01:15;24.50;50.10
2226;DHT22;1119;48.288;8.726;2023-07-22T09:03:43;24.60;49.50
2226;DHT22;1119;48.288;8.726;2023-07-22T09:06:10;24.60;49.30
2226;DHT22;1119;48.288;8.726;2023-07-22T09:08:39;24.50;49.70
2226;DHT22;1119;48.288;8.726;2023-07-22T09:11:07;24.10;48.90
2226;DHT22;1119;48.288;8.726;2023-07-22T09:13:35;23.60;48.90
2226;DHT22;1119;48.288;8.726;2023-07-22T09:16:05;23.10;49.90
2226;DHT22;1119;48.288;8.726;2023-07-22T09:18:33;22.80;50.10
2226;DHT22;1119;48.288;8.726;2023-07-22T09:21:01;22.60;50.40
2226;DHT22;1119;48.288;8.726;2023-07-22T09:23:33;22.30;51.30
2226;DHT22;1119;48.288;8.726;2023-07-22T09:26:12;22.50;51.80
2226;DHT22;1119;48.288;8.726;2023-07-22T09:28:53;22.80;51.20
2226;DHT22;1119;48.288;8.726;2023-07-22T09:31:22;23.20;50.40
2226;DHT22;1119;48.288;8.726;2023-07-22T09:33:50;23.60;49.20
2226;DHT22;1119;48.288;8.726;2023-07-22T09:36:20;23.90;49.10
2226;DHT22;1119;48.288;8.726;2023-07-22T09:38:59;24.10;48.70
2226;DHT22;1119;48.288;8.726;2023-07-22T09:41:29;24.20;48.70
2226;DHT22;1119;48.288;8.726;2023-07-22T09:44:00;24.30;48.60
2226;DHT22;1119;48.288;8.726;2023-07-22T09:46:31;24.50;49.10
2226;DHT22;1119;48.288;8.726;2023-07-22T09:49:02;24.70;47.70
2226;DHT22;1119;48.288;8.726;2023-07-22T09:51:34;24.60;46.90
2226;DHT22;1119;48.288;8.726;2023-07-22T09:54:03;24.60;47.70
2226;DHT22;1119;48.288;8.726;2023-07-22T09:56:43;24.70;47.60
2226;DHT22;1119;48.288;8.726;2023-07-22T09:59:12;24.80;47.00
2226;DHT22;1119;48.288;8.726;2023-07-22T10:01:40;25.00;47.00
2226;DHT22;1119;48.288;8.726;2023-07-22T10:04:10;25.00;47.20
2226;DHT22;1119;48.288;8.726;2023-07-22T10:06:38;25.20;47.50
2226;DHT22;1119;48.288;8.726;2023-07-22T10:09:08;25.20;46.80
2226;DHT22;1119;48.288;8.726;2023-07-22T10:11:39;25.20;47.10
2226;DHT22;1119;48.288;8.726;2023-07-22T10:14:07;25.30;47.70
2226;DHT22;1119;48.288;8.726;2023-07-22T10:16:34;25.50;47.00
2226;DHT22;1119;48.288;8.726;2023-07-22T10:19:04;25.30;47.10
2226;DHT22;1119;48.288;8.726;2023-07-22T10:21:33;25.00;47.60
2226;DHT22;1119;48.288;8.726;2023-07-22T10:24:02;24.70;48.30
2226;DHT22;1119;48.288;8.726;2023-07-22T10:26:31;24.60;48.20
2226;DHT22;1119;48.288;8.726;2023-07-22T10:29:01;24.60;48.20
2226;DHT22;1119;48.288;8.726;2023-07-22T10:31:30;24.70;47.60
2226;DHT22;1119;48.288;8.726;2023-07-22T10:33:58;24.80;46.70
2226;DHT22;1119;48.288;8.726;2023-07-22T10:36:29;25.10;46.90
2226;DHT22;1119;48.288;8.726;2023-07-22T10:38:57;25.10;45.40
2226;DHT22;1119;48.288;8.726;2023-07-22T10:41:26;24.90;46.40
2226;DHT22;1119;48.288;8.726;2023-07-22T10:43:55;24.70;45.00
2226;DHT22;1119;48.288;8.726;2023-07-22T10:46:34;24.00;45.80
2226;DHT22;1119;48.288;8.726;2023-07-22T10:49:09;23.90;46.70
2226;DHT22;1119;48.288;8.726;2023-07-22T10:51:39;24.00;47.00
2226;DHT22;1119;48.288;8.726;2023-07-22T10:54:11;24.20;46.70
2226;DHT22;1119;48.288;8.726;2023-07-22T10:56:41;24.50;46.60
2226;DHT22;1119;48.288;8.726;2023-07-22T10:59:10;24.90;46.00
2226;DHT22;1119;48.288;8.726;2023-07-22T11:01:40;25.10;45.90
2226;DHT22;1119;48.288;8.726;2023-07-22T11:04:24;25.20;45.90
2226;DHT22;1119;48.288;8.726;2023-07-22T11:06:58;25.30;45.90
2226;DHT22;1119;48.288;8.726;2023-07-22T11:09:37;25.30;45.20
2226;DHT22;1119;48.288;8.726;2023-07-22T11:12:06;25.20;45.30
2226;DHT22;1119;48.288;8.726;2023-07-22T11:14:37;24.90;45.40
2226;DHT22;1119;48.288;8.726;2023-07-22T11:17:07;25.00;44.50
2226;DHT22;1119;48.288;8.726;2023-07-22T11:19:35;25.30;44.20
2226;DHT22;1119;48.288;8.726;2023-07-22T11:22:03;25.60;43.20
2226;DHT22;1119;48.288;8.726;2023-07-22T11:24:33;25.80;42.80
2226;DHT22;1119;48.288;8.726;2023-07-22T11:27:03;25.60;43.30
2226;DHT22;1119;48.288;8.726;2023-07-22T11:29:32;25.50;44.10
2226;DHT22;1119;48.288;8.726;2023-07-22T11:31:59;25.60;43.90
2226;DHT22;1119;48.288;8.726;2023-07-22T11:34:28;25.70;42.40
2226;DHT22;1119;48.288;8.726;2023-07-22T11:36:56;25.60;42.80
2226;DHT22;1119;48.288;8.726;2023-07-22T11:39:25;25.50;41.90
2226;DHT22;1119;48.288;8.726;2023-07-22T11:41:58;25.40;42.40
2226;DHT22;1119;48.288;8.726;2023-07-22T11:44:27;25.10;42.80
2226;DHT22;1119;48.288;8.726;2023-07-22T11:46:57;24.90;43.60
2226;DHT22;1119;48.288;8.726;2023-07-22T11:49:28;25.00;45.00
2226;DHT22;1119;48.288;8.726;2023-07-22T11:51:58;25.00;45.10
2226;DHT22;1119;48.288;8.726;2023-07-22T11:54:26;25.00;45.30
2226;DHT22;1119;48.288;8.726;2023-07-22T11:56:54;25.00;45.80
2226;DHT22;1119;48.288;8.726;2023-07-22T11:59:36;25.20;45.70
2226;DHT22;1119;48.288;8.726;2023-07-22T12:02:05;25.60;45.40
2226;DHT22;1119;48.288;8.726;2023-07-22T12:04:34;25.90;44.70
2226;DHT22;1119;48.288;8.726;2023-07-22T12:07:02;26.10;45.70
2226;DHT22;1119;48.288;8.726;2023-07-22T12:09:31;26.20;46.00
2226;DHT22;1119;48.288;8.726;2023-07-22T12:11:59;26.20;46.20
2226;DHT22;1119;48.288;8.726;2023-07-22T12:14:34;26.10;45.60
2226;DHT22;1119;48.288;8.726;2023-07-22T12:17:02;26.10;45.20
2226;DHT22;1119;48.288;8.726;2023-07-22T12:19:29;26.10;44.20
2226;DHT22;1119;48.288;8.726;2023-07-22T12:21:58;26.20;44.10
2226;DHT22;1119;48.288;8.726;2023-07-22T12:24:27;26.50;43.80
2226;DHT22;1119;48.288;8.726;2023-07-22T12:26:54;26.40;43.50
2226;DHT22;1119;48.288;8.726;2023-07-22T12:29:22;26.20;44.00
2226;DHT22;1119;48.288;8.726;2023-07-22T12:31:49;25.90;45.30
2226;DHT22;1119;48.288;8.726;2023-07-22T12:34:16;26.00;46.20
2226;DHT22;1119;48.288;8.726;2023-07-22T12:36:44;26.20;45.10
2226;DHT22;1119;48.288;8.726;2023-07-22T12:39:12;26.20;46.10
2226;DHT22;1119;48.288;8.726;2023-07-22T12:41:40;26.10;45.30
2226;DHT22;1119;48.288;8.726;2023-07-22T12:44:07;26.10;46.10
2226;DHT22;1119;48.288;8.726;2023-07-22T12:46:34;26.10;45.60
2226;DHT22;1119;48.288;8.726;2023-07-22T12:49:02;26.20;45.10
2226;DHT22;1119;48.288;8.726;2023-07-22T12:51:30;26.30;44.80
2226;DHT22;1119;48.288;8.726;2023-07-22T12:53:57;26.50;43.90
2226;DHT22;1119;48.288;8.726;2023-07-22T12:56:26;26.60;43.50
2226;DHT22;1119;48.288;8.726;2023-07-22T12:58:52;26.70;43.10
2226;DHT22;1119;48.288;8.726;2023-07-22T13:01:19;26.80;42.70
2226;DHT22;1119;48.288;8.726;2023-07-22T13:03:47;26.70;42.40
2226;DHT22;1119;48.288;8.726;2023-07-22T13:06:14;26.50;42.80
2226;DHT22;1119;48.288;8.726;2023-07-22T13:08:41;26.30;43.70
2226;DHT22;1119;48.288;8.726;2023-07-22T13:11:09;26.10;44.70
2226;DHT22;1119;48.288;8.726;2023-07-22T13:13:38;25.90;45.60
2226;DHT22;1119;48.288;8.726;2023-07-22T13:16:05;25.80;43.90
2226;DHT22;1119;48.288;8.726;2023-07-22T13:18:32;26.00;42.80
2226;DHT22;1119;48.288;8.726;2023-07-22T13:20:59;26.20;43.00
2226;DHT22;1119;48.288;8.726;2023-07-22T13:23:27;26.40;41.60
2226;DHT22;1119;48.288;8.726;2023-07-22T13:25:54;26.50;41.80
2226;DHT22;1119;48.288;8.726;2023-07-22T13:28:21;26.60;42.70
2226;DHT22;1119;48.288;8.726;2023-07-22T13:30:50;26.60;41.00
2226;DHT22;1119;48.288;8.726;2023-07-22T13:33:18;26.50;40.20
2226;DHT22;1119;48.288;8.726;2023-07-22T13:35:45;26.30;40.10
2226;DHT22;1119;48.288;8.726;2023-07-22T13:38:12;26.30;39.80
2226;DHT22;1119;48.288;8.726;2023-07-22T13:40:39;26.20;40.70
2226;DHT22;1119;48.288;8.726;2023-07-22T13:43:07;26.20;40.70
2226;DHT22;1119;48.288;8.726;2023-07-22T13:45:35;26.10;40.60
2226;DHT22;1119;48.288;8.726;2023-07-22T13:48:04;26.00;41.90
2226;DHT22;1119;48.288;8.726;2023-07-22T13:50:32;25.90;42.40
2226;DHT22;1119;48.288;8.726;2023-07-22T13:52:59;25.90;42.10
2226;DHT22;1119;48.288;8.726;2023-07-22T13:55:26;26.10;42.10
2226;DHT22;1119;48.288;8.726;2023-07-22T13:57:54;26.20;41.50
2226;DHT22;1119;48.288;8.726;2023-07-22T14:00:21;26.10;40.90
2226;DHT22;1119;48.288;8.726;2023-07-22T14:02:48;26.20;40.60
2226;DHT22;1119;48.288;8.726;2023-07-22T14:05:17;26.20;39.90
2226;DHT22;1119;48.288;8.726;2023-07-22T14:07:44;26.10;40.30
2226;DHT22;1119;48.288;8.726;2023-07-22T14:10:11;25.80;40.90
2226;DHT22;1119;48.288;8.726;2023-07-22T14:12:39;25.50;41.20
2226;DHT22;1119;48.288;8.726;2023-07-22T14:15:07;25.50;42.70
2226;DHT22;1119;48.288;8.726;2023-07-22T14:17:36;25.50;41.40
2226;DHT22;1119;48.288;8.726;2023-07-22T14:20:04;25.50;41.80
2226;DHT22;1119;48.288;8.726;2023-07-22T14:22:34;25.60;41.90
2226;DHT22;1119;48.288;8.726;2023-07-22T14:25:01;25.80;42.00
2226;DHT22;1119;48.288;8.726;2023-07-22T14:27:29;26.10;41.60
2226;DHT22;1119;48.288;8.726;2023-07-22T14:29:57;25.90;41.30
2226;DHT22;1119;48.288;8.726;2023-07-22T14:32:24;25.80;41.90
2226;DHT22;1119;48.288;8.726;2023-07-22T14:34:51;25.70;42.10
2226;DHT22;1119;48.288;8.726;2023-07-22T14:37:19;25.70;42.10
2226;DHT22;1119;48.288;8.726;2023-07-22T14:39:47;25.80;41.90
2226;DHT22;1119;48.288;8.726;2023-07-22T14:42:15;25.80;41.80
2226;DHT22;1119;48.288;8.726;2023-07-22T14:44:42;26.10;42.00
2226;DHT22;1119;48.288;8.726;2023-07-22T14:47:10;26.10;41.70
2226;DHT22;1119;48.288;8.726;2023-07-22T14:49:37;26.10;41.70
2226;DHT22;1119;48.288;8.726;2023-07-22T14:52:05;26.10;41.80
2226;DHT22;1119;48.288;8.726;2023-07-22T14:54:33;26.00;41.60
2226;DHT22;1119;48.288;8.726;2023-07-22T14:57:02;25.90;41.90
2226;DHT22;1119;48.288;8.726;2023-07-22T14:59:30;25.80;42.20
2226;DHT22;1119;48.288;8.726;2023-07-22T15:01:57;25.70;42.30
2226;DHT22;1119;48.288;8.726;2023-07-22T15:04:25;25.50;42.80
2226;DHT22;1119;48.288;8.726;2023-07-22T15:06:52;25.60;43.20
2226;DHT22;1119;48.288;8.726;2023-07-22T15:09:20;25.80;42.60
2226;DHT22;1119;48.288;8.726;2023-07-22T15:11:47;26.00;41.90
2226;DHT22;1119;48.288;8.726;2023-07-22T15:14:16;26.00;40.90
2226;DHT22;1119;48.288;8.726;2023-07-22T15:16:43;25.90;41.40
2226;DHT22;1119;48.288;8.726;2023-07-22T15:19:11;25.80;41.80
2226;DHT22;1119;48.288;8.726;2023-07-22T15:21:38;25.70;42.30
2226;DHT22;1119;48.288;8.726;2023-07-22T15:24:06;25.60;42.30
2226;DHT22;1119;48.288;8.726;2023-07-22T15:26:33;25.50;42.50
2226;DHT22;1119;48.288;8.726;2023-07-22T15:29:01;25.50;43.00
2226;DHT22;1119;48.288;8.726;2023-07-22T15:31:29;25.50;43.20
2226;DHT22;1119;48.288;8.726;2023-07-22T15:33:57;25.50;42.30
2226;DHT22;1119;48.288;8.726;2023-07-22T15:36:24;25.50;42.60
2226;DHT22;1119;48.288;8.726;2023-07-22T15:38:51;25.50;42.40
2226;DHT22;1119;48.288;8.726;2023-07-22T15:41:19;25.40;42.70
2226;DHT22;1119;48.288;8.726;2023-07-22T15:43:46;25.20;42.50
2226;DHT22;1119;48.288;8.726;2023-07-22T15:46:14;25.20;42.90
2226;DHT22;1119;48.288;8.726;2023-07-22T15:48:42;25.30;43.30
2226;DHT22;1119;48.288;8.726;2023-07-22T15:51:10;25.40;44.30
2226;DHT22;1119;48.288;8.726;2023-07-22T15:53:38;25.30;43.70
2226;DHT22;1119;48.288;8.726;2023-07-22T15:56:06;25.40;43.60
2226;DHT22;1119;48.288;8.726;2023-07-22T15:58:34;25.50;43.70
2226;DHT22;1119;48.288;8.726;2023-07-22T16:01:01;25.60;43.40
2226;DHT22;1119;48.288;8.726;2023-07-22T16:03:29;25.70;41.90
2226;DHT22;1119;48.288;8.726;2023-07-22T16:05:57;25.60;41.60
2226;DHT22;1119;48.288;8.726;2023-07-22T16:08:25;25.50;42.20